Time;durP1;ratioP1;P1;durP2;ratioP2;P2;SDS_P1;SDS_P2;PMS_P1;PMS_P2;Temp;Humidity;BMP_temperature;BMP_pressure;BME280_temperature;BME280_humidity;BME280_pressure;Samples;Min_cycle;Max_cycle;Signal;HPM_P1;HPM_P2
2023/03/29 00:01:56;;;;;;;2.08;1.50;;;8.50;99.90;;;;;;5077480;28;20027;-77
2023/03/29 00:04:26;;;;;;;4.25;1.20;;;8.50;99.90;;;;;;5078027;28;20107;-76
2023/03/29 00:06:52;;;;;;;3.03;1.45;;;8.60;99.90;;;;;;5077264;28;20028;-78
2023/03/29 00:09:18;;;;;;;1.83;1.25;;;8.60;99.90;;;;;;5077819;28;20032;-77
2023/03/29 00:11:44;;;;;;;2.20;1.35;;;8.60;99.90;;;;;;5077928;28;20024;-77
2023/03/29 00:14:10;;;;;;;2.53;1.13;;;8.50;99.90;;;;;;5077253;28;20039;-77
2023/03/29 00:16:36;;;;;;;2.40;1.05;;;8.50;99.90;;;;;;5077896;28;20036;-76
2023/03/29 00:19:03;;;;;;;2.33;1.40;;;8.50;99.90;;;;;;5077223;28;20023;-77
2023/03/29 00:21:29;;;;;;;1.35;1.05;;;8.50;99.90;;;;;;5077622;28;20418;-76
2023/03/29 00:23:56;;;;;;;2.20;1.17;;;8.50;99.90;;;;;;5077178;28;20020;-78
2023/03/29 00:26:21;;;;;;;1.13;0.90;;;8.40;99.90;;;;;;5077618;28;20441;-77
2023/03/29 00:28:47;;;;;;;1.50;1.15;;;8.40;99.90;;;;;;5095676;28;20075;-77
2023/03/29 00:31:15;;;;;;;1.77;1.00;;;8.40;99.90;;;;;;5094976;28;20170;-77
2023/03/29 00:33:42;;;;;;;2.03;1.20;;;8.40;99.90;;;;;;5077769;28;20123;-77
2023/03/29 00:36:09;;;;;;;3.03;1.25;;;8.40;99.90;;;;;;5077266;28;20423;-77
2023/03/29 00:38:35;;;;;;;2.33;1.10;;;8.40;99.90;;;;;;5077714;28;20067;-76
2023/03/29 00:41:01;;;;;;;3.30;0.93;;;8.40;99.90;;;;;;5077062;28;20385;-77
2023/03/29 00:43:27;;;;;;;3.35;1.30;;;8.40;99.90;;;;;;5077525;28;20111;-76
2023/03/29 00:45:52;;;;;;;4.65;1.20;;;8.30;99.90;;;;;;5092112;28;20102;-79
2023/03/29 00:48:23;;;;;;;2.65;1.20;;;8.30;99.90;;;;;;5094984;28;20031;-76
2023/03/29 00:51:07;;;;;;;1.42;1.00;;;8.30;99.90;;;;;;5095412;28;20024;-78
2023/03/29 00:53:38;;;;;;;1.27;1.08;;;8.40;99.90;;;;;;5093962;28;20058;-78
2023/03/29 00:56:10;;;;;;;2.53;1.20;;;8.40;99.90;;;;;;5093427;28;20024;-78
2023/03/29 00:58:43;;;;;;;3.42;1.15;;;8.50;99.90;;;;;;5093960;28;20034;-78
2023/03/29 01:01:18;;;;;;;3.95;1.20;;;8.50;99.90;;;;;;5093278;28;20036;-77
2023/03/29 01:03:56;;;;;;;2.38;1.13;;;8.50;99.90;;;;;;5094085;28;20035;-77
2023/03/29 01:06:25;;;;;;;1.95;1.10;;;8.50;99.90;;;;;;5093618;28;20055;-78
2023/03/29 01:08:55;;;;;;;1.38;1.27;;;8.40;99.90;;;;;;5093519;28;20089;-77
2023/03/29 01:19:37;;;;;;;2.80;1.20;;;8.40;99.90;;;;;;4915489;29;20059;-77
2023/03/29 01:22:24;;;;;;;2.45;1.10;;;8.40;99.90;;;;;;4908540;29;20374;-77
2023/03/29 01:25:03;;;;;;;1.45;1.00;;;8.40;99.90;;;;;;4917477;29;20608;-76
2023/03/29 01:27:53;;;;;;;1.10;0.85;;;8.30;99.90;;;;;;4926978;29;20040;-76
2023/03/29 01:30:28;;;;;;;1.08;0.98;;;8.30;99.90;;;;;;4898392;29;20032;-75
2023/03/29 01:33:22;;;;;;;2.10;1.00;;;8.30;99.90;;;;;;4898356;29;20060;-76
2023/03/29 01:35:56;;;;;;;1.30;0.80;;;8.30;99.90;;;;;;4896442;29;20025;-76
2023/03/29 01:38:38;;;;;;;1.10;0.90;;;8.30;99.90;;;;;;4896965;29;20087;-75
2023/03/29 01:41:04;;;;;;;1.00;0.80;;;8.30;99.90;;;;;;4898303;29;20032;-75
2023/03/29 01:43:56;;;;;;;1.88;1.00;;;8.30;99.90;;;;;;4896450;29;20056;-79
2023/03/29 01:46:49;;;;;;;2.45;0.95;;;8.20;99.90;;;;;;4904351;29;20052;-75
2023/03/29 01:49:27;;;;;;;2.38;0.90;;;8.20;99.90;;;;;;4931510;29;20048;-76
2023/03/29 01:52:00;;;;;;;0.80;0.80;;;8.10;99.90;;;;;;4916735;29;20031;-79
2023/03/29 01:54:39;;;;;;;0.95;0.80;;;8.10;99.90;;;;;;4917458;29;20068;-77
2023/03/29 01:57:08;;;;;;;1.73;0.90;;;7.90;99.90;;;;;;4916608;29;20107;-78
2023/03/29 01:59:39;;;;;;;2.95;1.38;;;8.00;99.90;;;;;;4915250;29;20056;-77
2023/03/29 02:02:10;;;;;;;1.42;1.15;;;8.00;99.90;;;;;;4919081;29;20084;-76
2023/03/29 02:04:46;;;;;;;1.10;1.00;;;8.00;99.90;;;;;;4915682;29;20028;-76
2023/03/29 02:07:14;;;;;;;5.43;1.10;;;8.00;99.90;;;;;;4931124;29;20040;-76
2023/03/29 02:09:40;;;;;;;1.23;0.93;;;8.00;99.90;;;;;;4924709;29;20054;-77
2023/03/29 02:12:08;;;;;;;2.33;1.10;;;8.00;99.90;;;;;;4922622;29;20024;-77
2023/03/29 02:14:34;;;;;;;2.17;1.25;;;7.90;99.90;;;;;;4923036;29;20036;-77
2023/03/29 02:17:21;;;;;;;1.20;1.08;;;7.90;99.90;;;;;;4909833;29;20032;-78
2023/03/29 02:20:00;;;;;;;3.13;1.10;;;7.80;99.90;;;;;;4914520;29;20048;-80
2023/03/29 02:22:32;;;;;;;5.68;1.00;;;7.80;99.90;;;;;;4923935;29;20033;-79
2023/03/29 02:25:00;;;;;;;1.92;1.10;;;7.70;99.90;;;;;;4896987;29;20033;-78
2023/03/29 02:27:28;;;;;;;2.33;1.00;;;7.60;99.90;;;;;;4927292;29;20078;-76
2023/03/29 02:29:54;;;;;;;2.38;0.98;;;7.60;99.90;;;;;;4899393;29;20079;-75
2023/03/29 02:32:23;;;;;;;2.15;1.20;;;7.50;99.90;;;;;;4932887;29;20425;-75
2023/03/29 02:35:00;;;;;;;1.73;1.13;;;7.40;99.90;;;;;;4913594;29;20040;-75
2023/03/29 02:37:29;;;;;;;1.42;0.90;;;7.40;99.90;;;;;;4927005;29;20036;-76
2023/03/29 02:39:56;;;;;;;2.63;1.08;;;7.40;99.90;;;;;;4916247;29;20016;-75
2023/03/29 02:42:24;;;;;;;1.83;1.10;;;7.40;99.90;;;;;;4916277;29;20027;-76
2023/03/29 02:44:54;;;;;;;1.75;0.90;;;7.40;99.90;;;;;;4914835;29;20172;-75
2023/03/29 02:47:33;;;;;;;1.45;1.00;;;7.50;99.90;;;;;;4916469;29;20036;-75
2023/03/29 02:49:59;;;;;;;2.50;1.05;;;7.40;99.90;;;;;;4895895;29;20124;-77
2023/03/29 02:52:32;;;;;;;1.83;0.88;;;7.40;99.90;;;;;;4904474;29;20110;-75
2023/03/29 02:55:01;;;;;;;1.40;0.95;;;7.40;99.90;;;;;;4916440;29;20028;-81
2023/03/29 02:57:28;;;;;;;1.35;1.17;;;7.30;99.90;;;;;;4916082;29;20032;-78
2023/03/29 02:59:56;;;;;;;2.03;1.00;;;7.30;99.90;;;;;;4899066;29;20050;-78
2023/03/29 03:02:24;;;;;;;4.88;2.20;;;7.30;99.90;;;;;;4916008;29;20051;-78
2023/03/29 03:04:50;;;;;;;3.40;1.40;;;7.20;99.90;;;;;;4915604;29;20109;-77
2023/03/29 03:07:16;;;;;;;1.45;1.00;;;7.30;99.90;;;;;;4916148;29;20040;-77
2023/03/29 03:09:42;;;;;;;3.80;1.33;;;7.20;99.90;;;;;;4915687;29;20492;-79
2023/03/29 03:12:08;;;;;;;1.88;1.52;;;7.20;99.90;;;;;;4915964;29;20039;-78
2023/03/29 03:14:33;;;;;;;1.52;1.10;;;7.20;99.90;;;;;;4920430;29;20035;-78
2023/03/29 03:16:59;;;;;;;2.33;1.10;;;7.20;99.90;;;;;;4915684;29;20043;-79
2023/03/29 03:19:25;;;;;;;1.50;1.20;;;7.20;99.90;;;;;;4915766;29;20074;-80
2023/03/29 03:21:51;;;;;;;1.20;1.05;;;7.20;99.90;;;;;;4931483;29;20481;-80
2023/03/29 03:24:17;;;;;;;1.85;1.10;;;7.20;99.90;;;;;;4934612;29;20067;-80
2023/03/29 03:26:45;;;;;;;4.63;1.10;;;7.10;99.90;;;;;;4908579;29;20040;-79
2023/03/29 03:29:11;;;;;;;1.50;1.10;;;7.10;99.90;;;;;;4909382;29;20652;-78
2023/03/29 03:31:40;;;;;;;4.57;1.42;;;7.10;99.90;;;;;;4915388;29;20401;-78
2023/03/29 03:34:07;;;;;;;1.40;1.30;;;7.10;99.90;;;;;;4919206;29;20028;-79
2023/03/29 03:36:33;;;;;;;1.20;1.08;;;7.00;99.90;;;;;;4918787;29;20107;-80
2023/03/29 03:38:59;;;;;;;2.17;1.25;;;7.00;99.90;;;;;;4914936;29;20031;-78
2023/03/29 03:41:25;;;;;;;1.45;1.35;;;7.00;99.90;;;;;;4900341;29;20032;-77
2023/03/29 03:43:50;;;;;;;1.52;1.20;;;7.00;99.90;;;;;;4915304;29;20979;-79
2023/03/29 03:46:16;;;;;;;4.88;1.73;;;7.00;99.90;;;;;;4899348;29;20104;-78
2023/03/29 03:48:43;;;;;;;3.90;1.60;;;6.90;99.90;;;;;;4898483;29;20088;-78
2023/03/29 03:51:09;;;;;;;5.00;2.38;;;6.90;99.90;;;;;;4927838;29;20064;-78
2023/03/29 03:53:35;;;;;;;4.38;2.20;;;6.90;99.90;;;;;;4918678;29;20037;-80
2023/03/29 03:56:07;;;;;;;4.80;2.03;;;6.90;99.90;;;;;;4914270;29;20109;-79
2023/03/29 03:58:36;;;;;;;6.47;2.03;;;6.80;99.90;;;;;;4900126;29;20029;-83
2023/03/29 04:01:03;;;;;;;3.33;2.00;;;6.70;99.90;;;;;;4918736;29;20119;-80
2023/03/29 04:03:30;;;;;;;2.80;1.95;;;6.60;99.90;;;;;;4901321;29;20030;-79
2023/03/29 04:05:59;;;;;;;3.97;2.00;;;6.50;99.90;;;;;;4897971;29;20036;-78
2023/03/29 04:08:25;;;;;;;2.20;1.50;;;6.50;99.90;;;;;;4902245;29;20060;-76
2023/03/29 04:10:55;;;;;;;1.70;1.20;;;6.50;99.90;;;;;;4913589;29;20067;-78
2023/03/29 04:13:21;;;;;;;2.80;1.52;;;6.60;99.90;;;;;;4913925;29;20032;-77
2023/03/29 04:15:48;;;;;;;2.45;1.30;;;6.50;99.90;;;;;;4931151;29;20079;-80
2023/03/29 04:18:15;;;;;;;3.53;1.35;;;6.60;99.90;;;;;;4910951;29;20056;-77
2023/03/29 04:20:41;;;;;;;2.17;1.30;;;6.60;99.90;;;;;;4903542;29;20029;-78
2023/03/29 04:23:07;;;;;;;3.13;1.50;;;6.60;99.90;;;;;;4899288;29;20381;-77
2023/03/29 04:25:32;;;;;;;3.63;1.53;;;6.60;99.90;;;;;;4916995;29;20115;-77
2023/03/29 04:27:58;;;;;;;4.30;1.47;;;6.70;99.90;;;;;;4917511;29;20035;-78
2023/03/29 04:30:23;;;;;;;2.15;1.45;;;6.70;99.90;;;;;;4916984;29;20025;-78
2023/03/29 04:32:49;;;;;;;2.10;1.42;;;6.70;99.90;;;;;;4913843;29;20033;-78
2023/03/29 04:35:15;;;;;;;2.20;1.45;;;6.80;99.90;;;;;;4911693;29;20024;-77
2023/03/29 04:37:41;;;;;;;1.65;1.10;;;6.80;99.90;;;;;;4917609;29;20028;-77
2023/03/29 04:40:08;;;;;;;2.53;1.50;;;6.80;99.90;;;;;;4913278;29;20028;-76
2023/03/29 04:42:35;;;;;;;2.97;1.50;;;6.90;99.90;;;;;;4914915;29;20119;-81
2023/03/29 04:45:00;;;;;;;2.92;1.55;;;6.90;99.90;;;;;;4932633;29;20086;-77
2023/03/29 04:47:30;;;;;;;2.88;1.30;;;6.90;99.90;;;;;;4901428;29;20493;-79
2023/03/29 04:49:56;;;;;;;2.25;1.30;;;6.90;99.90;;;;;;4924044;29;20462;-78
2023/03/29 04:52:21;;;;;;;2.33;1.20;;;7.00;99.90;;;;;;4901728;29;20052;-78
2023/03/29 04:54:47;;;;;;;2.95;1.60;;;7.00;99.90;;;;;;4912854;29;20479;-78
2023/03/29 04:57:12;;;;;;;2.53;1.52;;;7.00;99.90;;;;;;4911748;29;20066;-78
2023/03/29 04:59:38;;;;;;;2.45;1.33;;;7.10;99.90;;;;;;4917080;29;20465;-78
2023/03/29 05:02:04;;;;;;;1.65;1.40;;;7.10;99.90;;;;;;4917461;29;20036;-76
2023/03/29 05:04:31;;;;;;;2.87;1.80;;;7.20;99.90;;;;;;4917578;29;20031;-75
2023/03/29 05:06:57;;;;;;;2.20;1.40;;;7.10;99.90;;;;;;4917223;29;20472;-77
2023/03/29 05:09:24;;;;;;;2.15;1.60;;;7.10;99.90;;;;;;4942201;29;20023;-78
2023/03/29 05:11:50;;;;;;;2.35;1.50;;;7.20;99.90;;;;;;4916646;29;20088;-78
2023/03/29 05:14:16;;;;;;;2.40;1.40;;;7.20;99.90;;;;;;4916203;29;20036;-78
2023/03/29 05:16:42;;;;;;;2.50;1.58;;;7.20;99.90;;;;;;4912366;29;20028;-77
2023/03/29 05:19:10;;;;;;;2.40;1.60;;;7.30;99.90;;;;;;4912549;29;20053;-79
2023/03/29 05:21:36;;;;;;;3.05;1.60;;;7.30;99.90;;;;;;4902543;29;20524;-76
2023/03/29 05:24:03;;;;;;;2.17;1.58;;;7.30;99.90;;;;;;4927502;29;20032;-76
2023/03/29 05:26:29;;;;;;;3.85;1.85;;;7.30;99.90;;;;;;4911525;29;20026;-75
2023/03/29 05:28:55;;;;;;;3.00;1.60;;;7.30;99.90;;;;;;4917326;29;20033;-75
2023/03/29 05:31:22;;;;;;;3.15;1.65;;;7.40;99.90;;;;;;4916970;29;20028;-75
2023/03/29 05:33:51;;;;;;;4.07;1.75;;;7.40;99.90;;;;;;4930957;29;20055;-75
2023/03/29 05:36:18;;;;;;;2.15;1.80;;;7.40;99.90;;;;;;4916714;29;20048;-76
2023/03/29 05:38:45;;;;;;;4.43;1.98;;;7.40;99.90;;;;;;4915961;29;20047;-75
2023/03/29 05:41:11;;;;;;;4.00;2.00;;;7.40;99.90;;;;;;4931472;29;20032;-75
2023/03/29 05:43:37;;;;;;;3.35;2.08;;;7.40;99.90;;;;;;4898664;29;20048;-78
2023/03/29 05:46:04;;;;;;;4.53;1.52;;;7.50;99.90;;;;;;4896019;29;20458;-74
2023/03/29 05:48:30;;;;;;;5.78;1.90;;;7.50;99.90;;;;;;4920522;29;20044;-75
2023/03/29 05:50:56;;;;;;;5.30;1.98;;;7.50;99.90;;;;;;4903599;29;20080;-75
2023/03/29 05:53:23;;;;;;;6.53;1.77;;;7.60;99.90;;;;;;4907662;29;20033;-76
2023/03/29 05:55:50;;;;;;;3.88;1.83;;;7.60;99.90;;;;;;4913905;29;20029;-75
2023/03/29 05:58:19;;;;;;;6.05;1.92;;;7.60;99.90;;;;;;4916790;29;20209;-75
2023/03/29 06:00:45;;;;;;;2.63;1.80;;;7.60;99.90;;;;;;4915080;29;20032;-75
2023/03/29 06:03:29;;;;;;;4.75;1.80;;;7.70;99.90;;;;;;4915553;29;20039;-77
2023/03/29 06:06:02;;;;;;;7.00;1.95;;;7.70;99.90;;;;;;4916476;29;20158;-77
2023/03/29 06:08:29;;;;;;;4.80;1.90;;;7.70;99.90;;;;;;4930874;29;20040;-75
2023/03/29 06:11:03;;;;;;;4.60;1.77;;;7.80;99.90;;;;;;4911674;29;20123;-76
2023/03/29 06:13:30;;;;;;;6.68;1.70;;;7.80;99.90;;;;;;4915514;29;20033;-76
2023/03/29 06:15:56;;;;;;;4.47;1.60;;;7.80;99.90;;;;;;4911100;29;20092;-76
2023/03/29 06:18:22;;;;;;;3.95;1.80;;;7.90;99.90;;;;;;4897379;29;20065;-77
2023/03/29 06:20:49;;;;;;;4.18;2.30;;;7.90;99.90;;;;;;4895887;29;20111;-76
2023/03/29 06:23:15;;;;;;;2.90;2.00;;;7.90;99.90;;;;;;4911606;29;20031;-75
2023/03/29 06:25:43;;;;;;;2.45;1.67;;;7.90;99.90;;;;;;4916584;29;20381;-77
2023/03/29 06:28:09;;;;;;;3.08;1.83;;;8.00;99.90;;;;;;4931226;29;20044;-76
2023/03/29 06:30:34;;;;;;;2.35;1.88;;;8.00;99.90;;;;;;4915478;29;20070;-83
2023/03/29 06:33:00;;;;;;;5.18;2.00;;;8.10;99.90;;;;;;4903031;29;20165;-77
2023/03/29 06:35:26;;;;;;;3.30;1.83;;;8.10;99.90;;;;;;4912130;29;20036;-75
2023/03/29 06:37:53;;;;;;;5.40;2.13;;;8.10;99.90;;;;;;4933599;29;20039;-75
2023/03/29 06:40:23;;;;;;;4.63;2.10;;;8.20;99.90;;;;;;4921778;29;20484;-77
2023/03/29 06:42:56;;;;;;;4.15;1.90;;;8.20;99.90;;;;;;4916831;29;20153;-76
2023/03/29 06:45:25;;;;;;;4.50;2.08;;;8.30;99.90;;;;;;4911640;29;20035;-76
2023/03/29 06:47:51;;;;;;;4.68;2.20;;;8.30;99.90;;;;;;4914540;29;20071;-77
2023/03/29 06:50:17;;;;;;;2.88;1.90;;;8.30;99.90;;;;;;4911837;29;20466;-77
2023/03/29 06:52:44;;;;;;;3.80;2.25;;;8.30;99.90;;;;;;4911702;29;20025;-77
2023/03/29 06:55:10;;;;;;;6.88;2.65;;;8.40;99.90;;;;;;4912088;29;20362;-77
2023/03/29 06:57:37;;;;;;;4.97;2.50;;;8.40;99.90;;;;;;4900934;29;20032;-86
2023/03/29 07:00:14;;;;;;;7.60;2.55;;;8.50;99.90;;;;;;4915591;29;20377;-77
2023/03/29 07:02:40;;;;;;;5.47;2.55;;;8.50;99.90;;;;;;4900622;29;20026;-77
2023/03/29 07:05:10;;;;;;;4.75;2.35;;;8.50;99.90;;;;;;4915652;29;20059;-76
2023/03/29 07:08:29;;;;;;;3.85;2.08;;;8.50;99.90;;;;;;4915406;29;20131;-75
2023/03/29 07:10:27;;;;;;;5.20;2.40;;;8.50;99.90;;;;;;4914644;29;20107;-76
2023/03/29 07:12:53;;;;;;;5.45;2.40;;;8.60;99.90;;;;;;4928935;29;20059;-75
2023/03/29 07:15:20;;;;;;;3.35;2.40;;;8.60;99.90;;;;;;4917568;29;20059;-76
2023/03/29 07:17:47;;;;;;;7.05;2.50;;;8.60;99.90;;;;;;4914202;29;20061;-78
2023/03/29 07:20:14;;;;;;;5.10;2.60;;;8.70;99.90;;;;;;4916047;29;20075;-78
2023/03/29 07:22:40;;;;;;;7.07;2.58;;;8.80;99.90;;;;;;4915008;29;20064;-79
2023/03/29 07:25:11;;;;;;;7.07;2.40;;;8.80;99.90;;;;;;4909149;29;20037;-79
2023/03/29 07:27:38;;;;;;;4.97;2.63;;;8.90;99.90;;;;;;4910291;29;20043;-79
2023/03/29 07:30:09;;;;;;;4.20;2.55;;;9.00;99.90;;;;;;4915719;29;20024;-78
2023/03/29 07:32:35;;;;;;;5.63;2.65;;;9.00;99.90;;;;;;4915864;29;20043;-83
2023/03/29 07:35:04;;;;;;;4.00;2.40;;;9.00;99.90;;;;;;4919910;29;20064;-79
2023/03/29 07:37:29;;;;;;;4.13;2.50;;;9.10;99.90;;;;;;4918926;29;20024;-77
2023/03/29 07:39:55;;;;;;;4.25;2.22;;;9.10;99.90;;;;;;4918214;29;20035;-76
2023/03/29 07:42:21;;;;;;;3.58;2.35;;;9.20;99.90;;;;;;4918124;29;20370;-76
2023/03/29 07:44:47;;;;;;;4.22;2.63;;;9.20;99.90;;;;;;4917662;29;20107;-76
2023/03/29 07:47:14;;;;;;;3.75;2.38;;;9.30;99.90;;;;;;4912153;29;20535;-77
2023/03/29 07:49:41;;;;;;;4.28;2.38;;;9.30;99.90;;;;;;4912215;29;20056;-76
2023/03/29 07:52:07;;;;;;;2.97;2.10;;;9.30;99.90;;;;;;4914127;29;20063;-76
2023/03/29 07:54:33;;;;;;;6.28;2.25;;;9.40;99.90;;;;;;4908026;29;20060;-76
2023/03/29 07:56:59;;;;;;;4.70;2.40;;;9.40;99.90;;;;;;4915154;29;20047;-76
2023/03/29 07:59:26;;;;;;;6.70;2.40;;;9.40;99.90;;;;;;4909670;29;20032;-76
2023/03/29 08:01:52;;;;;;;5.57;2.78;;;9.50;99.90;;;;;;4907643;29;20029;-77
2023/03/29 08:04:18;;;;;;;4.38;2.65;;;9.50;99.90;;;;;;4908215;29;20417;-76
2023/03/29 08:06:43;;;;;;;4.13;2.45;;;9.50;99.90;;;;;;4909992;29;20040;-77
2023/03/29 08:09:09;;;;;;;4.55;2.40;;;9.50;99.90;;;;;;4917853;29;20384;-75
2023/03/29 08:11:37;;;;;;;6.53;2.33;;;9.60;99.90;;;;;;4917372;29;20024;-76
2023/03/29 08:14:02;;;;;;;6.70;2.33;;;9.70;99.90;;;;;;4922166;29;20028;-73
2023/03/29 08:16:28;;;;;;;5.80;3.20;;;9.80;99.90;;;;;;4909840;29;20028;-74
2023/03/29 08:18:54;;;;;;;3.92;2.40;;;9.80;99.90;;;;;;4916400;29;20108;-76
2023/03/29 08:21:20;;;;;;;6.82;2.53;;;9.80;99.90;;;;;;4919999;29;20028;-75
2023/03/29 08:23:45;;;;;;;5.50;2.33;;;9.90;99.90;;;;;;4921056;29;20035;-74
2023/03/29 08:26:11;;;;;;;3.47;2.20;;;9.90;99.90;;;;;;4936850;29;20021;-74
2023/03/29 08:28:37;;;;;;;6.53;2.42;;;9.90;99.90;;;;;;4911492;29;20032;-76
2023/03/29 08:31:03;;;;;;;4.20;2.22;;;9.90;99.90;;;;;;4917803;29;20028;-74
2023/03/29 08:33:28;;;;;;;3.08;2.08;;;10.00;99.90;;;;;;4897845;29;20033;-73
2023/03/29 08:35:54;;;;;;;7.50;2.30;;;10.10;99.90;;;;;;4897510;29;20032;-74
2023/03/29 08:38:20;;;;;;;4.97;2.33;;;10.20;99.90;;;;;;4916198;29;20110;-73
2023/03/29 08:40:49;;;;;;;2.75;1.90;;;10.30;99.90;;;;;;4916311;29;20095;-74
2023/03/29 08:43:29;;;;;;;4.15;2.75;;;10.40;99.90;;;;;;4916323;29;20036;-74
2023/03/29 08:46:16;;;;;;;4.63;2.25;;;10.50;99.90;;;;;;4915714;29;20028;-74
2023/03/29 08:48:47;;;;;;;2.95;1.98;;;10.50;99.90;;;;;;4915068;29;20424;-74
2023/03/29 08:51:30;;;;;;;4.20;2.65;;;10.60;99.90;;;;;;4912581;29;20120;-74
2023/03/29 08:54:01;;;;;;;5.35;2.00;;;10.70;99.90;;;;;;4916862;29;20765;-74
2023/03/29 08:56:29;;;;;;;3.75;2.20;;;10.80;99.90;;;;;;4915286;29;20028;-74
2023/03/29 08:58:57;;;;;;;4.25;2.42;;;10.90;99.90;;;;;;4916578;29;20028;-74
2023/03/29 09:01:24;;;;;;;3.83;2.20;;;11.00;99.90;;;;;;4917208;29;20099;-74
2023/03/29 09:04:02;;;;;;;4.72;2.17;;;11.10;99.90;;;;;;4912500;29;20028;-74
2023/03/29 09:06:27;;;;;;;4.72;2.30;;;11.20;99.90;;;;;;4912855;29;20426;-73
2023/03/29 09:08:53;;;;;;;6.05;2.03;;;11.30;99.90;;;;;;4912836;29;20532;-73
2023/03/29 09:11:42;;;;;;;3.33;1.98;;;11.40;99.90;;;;;;4916211;29;20075;-74
2023/03/29 09:14:08;;;;;;;5.50;2.30;;;11.40;99.90;;;;;;4906165;29;20426;-74
2023/03/29 09:16:45;;;;;;;3.97;2.13;;;11.60;99.90;;;;;;4915865;29;20469;-74
2023/03/29 09:19:52;;;;;;;3.28;2.05;;;11.70;99.90;;;;;;4915209;29;20052;-74
2023/03/29 09:22:17;;;;;;;2.83;1.65;;;11.80;99.90;;;;;;4842747;29;20033;-74
2023/03/29 09:24:56;;;;;;;3.83;2.00;;;11.90;99.90;;;;;;4902445;29;20393;-74
2023/03/29 09:28:02;;;;;;;4.15;1.90;;;12.00;99.90;;;;;;4910609;29;20488;-74
2023/03/29 09:30:49;;;;;;;5.25;2.13;;;12.10;99.90;;;;;;4899143;29;20036;-74
2023/03/29 09:33:27;;;;;;;5.07;2.33;;;12.10;99.90;;;;;;4901737;29;20056;-74
2023/03/29 09:36:09;;;;;;;4.43;2.20;;;12.20;99.90;;;;;;4915137;29;20377;-75
2023/03/29 09:38:40;;;;;;;4.53;2.10;;;12.30;99.90;;;;;;4917008;29;20322;-73
2023/03/29 09:41:21;;;;;;;9.88;2.15;;;12.20;99.90;;;;;;4915202;29;20047;-74
2023/03/29 09:43:49;;;;;;;5.57;2.45;;;12.30;99.90;;;;;;4911847;29;20107;-74
2023/03/29 09:46:25;;;;;;;3.10;1.88;;;12.50;99.90;;;;;;4897876;29;20029;-74
2023/03/29 09:48:53;;;;;;;4.20;1.98;;;12.60;99.90;;;;;;4914661;29;20477;-73
2023/03/29 09:51:21;;;;;;;4.22;2.33;;;12.80;99.90;;;;;;4899543;29;20059;-73
2023/03/29 09:53:48;;;;;;;3.53;1.90;;;12.90;99.90;;;;;;4919163;29;20037;-74
2023/03/29 09:56:14;;;;;;;4.82;2.00;;;12.90;99.90;;;;;;4921537;29;20107;-73
2023/03/29 09:58:42;;;;;;;4.43;1.95;;;12.90;99.90;;;;;;4915597;29;20036;-75
2023/03/29 10:01:14;;;;;;;5.10;2.10;;;13.00;99.90;;;;;;4899385;29;20029;-74
2023/03/29 10:03:40;;;;;;;5.22;1.80;;;13.00;99.70;;;;;;4904362;29;20024;-75
2023/03/29 10:06:09;;;;;;;4.32;1.98;;;13.00;99.40;;;;;;4906320;29;20040;-74
2023/03/29 10:08:46;;;;;;;3.25;2.08;;;12.90;99.50;;;;;;4896110;29;20036;-74
2023/03/29 10:11:30;;;;;;;3.78;1.92;;;13.10;99.30;;;;;;4929305;29;20367;-74
2023/03/29 10:14:01;;;;;;;5.03;1.63;;;13.20;99.30;;;;;;4907010;29;20123;-74
2023/03/29 10:16:38;;;;;;;3.28;1.77;;;13.30;99.40;;;;;;4908914;29;20043;-74
2023/03/29 10:19:18;;;;;;;5.00;1.88;;;13.50;99.20;;;;;;4898331;29;20505;-74
2023/03/29 10:21:45;;;;;;;5.18;1.90;;;13.50;98.30;;;;;;4910962;29;20473;-74
2023/03/29 10:24:11;;;;;;;2.88;1.95;;;13.50;98.70;;;;;;4905457;29;20032;-74
2023/03/29 10:26:41;;;;;;;2.47;1.83;;;13.50;98.90;;;;;;4915674;29;20393;-74
2023/03/29 10:29:07;;;;;;;5.75;2.00;;;13.60;99.00;;;;;;4898764;29;20055;-74
2023/03/29 10:31:36;;;;;;;3.05;1.70;;;13.60;98.00;;;;;;4913093;29;20032;-74
2023/03/29 10:34:05;;;;;;;4.60;1.95;;;13.70;98.30;;;;;;4917415;29;20480;-74
2023/03/29 10:36:30;;;;;;;3.28;1.95;;;13.80;97.90;;;;;;4918669;29;20043;-74
2023/03/29 10:38:58;;;;;;;3.72;1.83;;;14.00;98.40;;;;;;4902059;29;20037;-75
2023/03/29 10:41:26;;;;;;;6.72;1.70;;;13.90;97.20;;;;;;4918743;29;20111;-74
2023/03/29 10:43:52;;;;;;;3.00;1.40;;;13.90;97.50;;;;;;4903067;29;20040;-74
2023/03/29 10:46:28;;;;;;;8.35;2.42;;;14.00;97.40;;;;;;4925589;29;20088;-74
2023/03/29 10:48:57;;;;;;;3.75;1.70;;;14.10;96.70;;;;;;4933638;29;20508;-74
2023/03/29 10:51:26;;;;;;;4.63;2.13;;;14.20;96.50;;;;;;4899680;29;20157;-74
2023/03/29 10:53:52;;;;;;;2.53;1.30;;;14.20;95.10;;;;;;4914561;29;20067;-74
2023/03/29 10:56:37;;;;;;;3.60;1.45;;;14.20;94.50;;;;;;4907821;29;20548;-74
2023/03/29 10:59:21;;;;;;;1.63;1.02;;;14.30;94.80;;;;;;4899353;29;20084;-74
2023/03/29 11:02:18;;;;;;;3.35;1.63;;;14.30;93.10;;;;;;4918659;29;20027;-74
2023/03/29 11:05:40;;;;;;;3.17;1.30;;;14.40;92.70;;;;;;4900262;29;20474;-78
2023/03/29 11:08:25;;;;;;;1.83;1.10;;;14.40;91.70;;;;;;4856919;29;20094;-74
2023/03/29 11:11:16;;;;;;;2.55;1.20;;;14.40;90.90;;;;;;4860131;29;20044;-74
2023/03/29 11:13:57;;;;;;;2.22;0.98;;;14.40;91.70;;;;;;4898349;29;20394;-74
2023/03/29 11:17:27;;;;;;;2.15;1.00;;;14.50;91.30;;;;;;4908611;29;20055;-74
2023/03/29 11:20:17;;;;;;;8.40;4.60;;;14.70;90.80;;;;;;4819278;29;20070;-75
2023/03/29 11:23:07;;;;;;;2.85;1.50;;;14.80;90.30;;;;;;4818366;29;20026;-77
2023/03/29 11:25:38;;;;;;;1.33;1.20;;;15.00;89.60;;;;;;4838910;29;20112;-75
2023/03/29 11:28:28;;;;;;;1.67;1.10;;;14.90;88.90;;;;;;4822975;29;20045;-76
2023/03/29 11:31:14;;;;;;;1.88;1.08;;;15.00;87.80;;;;;;4822193;29;20463;-76
2023/03/29 11:34:05;;;;;;;2.72;1.33;;;15.00;87.30;;;;;;4831973;29;20042;-76
2023/03/29 11:36:37;;;;;;;4.07;1.47;;;15.10;86.90;;;;;;4819551;29;20045;-77
2023/03/29 11:39:28;;;;;;;2.33;1.20;;;15.00;86.60;;;;;;4828860;29;20061;-76
2023/03/29 11:42:03;;;;;;;2.70;1.13;;;15.10;87.70;;;;;;4837439;29;20038;-78
2023/03/29 11:44:32;;;;;;;2.72;1.20;;;15.10;88.40;;;;;;4837532;29;20042;-77
2023/03/29 11:47:14;;;;;;;5.40;1.20;;;15.00;86.70;;;;;;4831060;29;20125;-76
2023/03/29 11:49:53;;;;;;;1.27;1.00;;;15.10;86.40;;;;;;4841213;29;20045;-75
2023/03/29 11:52:22;;;;;;;3.17;1.05;;;15.10;85.10;;;;;;4898194;29;20056;-76
2023/03/29 11:54:56;;;;;;;1.60;1.02;;;15.20;85.10;;;;;;4899077;29;20055;-76
2023/03/29 11:57:33;;;;;;;1.08;0.93;;;15.40;85.70;;;;;;4879732;29;20523;-74
2023/03/29 12:00:14;;;;;;;1.40;1.00;;;15.40;84.10;;;;;;4886762;29;20079;-75
2023/03/29 12:02:55;;;;;;;2.72;1.17;;;15.50;82.70;;;;;;4882106;29;20060;-75
2023/03/29 12:05:27;;;;;;;4.32;1.40;;;15.60;83.20;;;;;;4899149;29;20060;-75
2023/03/29 12:08:12;;;;;;;;;;;15.60;83.40;;;;;;4887358;29;20037;-76
2023/03/29 12:10:47;;;;;;;4.22;1.13;;;15.60;83.90;;;;;;4897704;29;19907;-75
2023/03/29 12:13:44;;;;;;;2.38;1.40;;;15.50;82.80;;;;;;4882154;29;20462;-75
2023/03/29 12:16:44;;;;;;;2.67;1.05;;;15.60;85.40;;;;;;4882624;29;20037;-75
2023/03/29 12:19:23;;;;;;;4.70;1.23;;;15.70;84.50;;;;;;4905766;29;20067;-74
2023/03/29 12:21:50;;;;;;;3.22;1.25;;;15.80;83.80;;;;;;4896717;29;20056;-75
2023/03/29 12:24:18;;;;;;;3.90;1.20;;;16.00;85.10;;;;;;4912797;29;20028;-75
2023/03/29 12:26:56;;;;;;;3.40;1.00;;;16.10;84.20;;;;;;4905592;29;20111;-77
2023/03/29 12:30:00;;;;;;;2.30;1.63;;;16.10;83.10;;;;;;4916149;29;20038;-76
2023/03/29 12:32:44;;;;;;;3.25;1.33;;;16.10;83.80;;;;;;4921023;29;20025;-75
2023/03/29 12:35:22;;;;;;;2.58;1.15;;;16.10;84.80;;;;;;4913036;29;20059;-75
2023/03/29 12:37:51;;;;;;;2.08;1.25;;;16.10;86.80;;;;;;4910140;29;20462;-75
2023/03/29 12:40:20;;;;;;;4.32;1.55;;;16.10;85.70;;;;;;4917465;29;20055;-76
2023/03/29 12:42:46;;;;;;;3.22;1.48;;;16.00;86.50;;;;;;4916624;29;20493;-76
2023/03/29 12:45:33;;;;;;;2.35;1.27;;;15.80;87.80;;;;;;4912690;29;20120;-75
2023/03/29 12:48:00;;;;;;;4.90;1.60;;;15.70;90.00;;;;;;4909617;29;20040;-75
2023/03/29 12:50:41;;;;;;;2.13;1.20;;;15.70;90.10;;;;;;4908178;29;20043;-75
2023/03/29 12:53:24;;;;;;;6.88;1.42;;;15.70;90.60;;;;;;4902375;29;20123;-75
2023/03/29 12:56:08;;;;;;;2.65;1.38;;;15.90;90.60;;;;;;4899801;29;20032;-75
2023/03/29 12:58:42;;;;;;;4.60;1.42;;;15.90;90.50;;;;;;4903613;29;20036;-75
2023/03/29 13:01:26;;;;;;;2.65;1.30;;;16.00;90.40;;;;;;4911102;29;20032;-76
2023/03/29 13:03:58;;;;;;;2.22;1.38;;;16.20;90.20;;;;;;4905528;29;20024;-74
2023/03/29 13:06:50;;;;;;;1.83;1.15;;;16.20;90.30;;;;;;4908096;29;20041;-74
2023/03/29 13:09:27;;;;;;;2.88;1.40;;;16.20;90.20;;;;;;4926840;29;20044;-74
2023/03/29 13:11:56;;;;;;;2.67;1.20;;;16.00;90.90;;;;;;4904443;29;20032;-74
2023/03/29 13:14:28;;;;;;;4.47;1.05;;;16.00;91.70;;;;;;4904462;29;20033;-74
2023/03/29 13:17:04;;;;;;;2.47;0.85;;;15.70;92.90;;;;;;4907869;29;20071;-74
2023/03/29 13:19:33;;;;;;;5.22;1.02;;;15.70;93.50;;;;;;4908515;29;20044;-74
2023/03/29 13:22:11;;;;;;;4.55;0.90;;;15.50;94.80;;;;;;4911428;29;20036;-74
2023/03/29 13:25:04;;;;;;;3.95;0.98;;;15.40;96.00;;;;;;4916365;29;20046;-74